Time;durP1;ratioP1;P1;durP2;ratioP2;P2;SDS_P1;SDS_P2;PMS_P1;PMS_P2;Temp;Humidity;BMP_temperature;BMP_pressure;BME280_temperature;BME280_humidity;BME280_pressure;Samples;Min_cycle;Max_cycle;Signal;HPM_P1;HPM_P2
2021/11/14 00:00:27;;;;;;;23.15;17.17;;;;;;;5.64;100.00;95983.44;1036081;28;20108;-47
2021/11/14 00:01:00;;;;;;;20.92;15.98;;;;;;;5.60;100.00;95980.13;1032324;28;20030;-48
2021/11/14 00:01:31;;;;;;;23.75;18.08;;;;;;;5.62;100.00;95980.91;1027838;28;20286;-48
2021/11/14 00:02:01;;;;;;;23.10;18.23;;;;;;;5.58;100.00;95979.38;1028101;28;20254;-50
2021/11/14 00:02:32;;;;;;;21.42;17.60;;;;;;;5.58;100.00;95981.16;1024644;28;20107;-48
2021/11/14 00:03:03;;;;;;;23.83;17.80;;;;;;;5.58;100.00;95983.75;1031696;28;20018;-49
2021/11/14 00:03:34;;;;;;;23.30;17.33;;;;;;;5.64;100.00;95978.22;1036095;28;20492;-48
2021/11/14 00:04:07;;;;;;;24.20;18.58;;;;;;;5.67;100.00;95982.41;1036421;28;20261;-51
2021/11/14 00:04:37;;;;;;;22.65;17.95;;;;;;;5.64;100.00;95984.25;1032473;28;20073;-48
2021/11/14 00:05:08;;;;;;;21.23;16.63;;;;;;;5.65;100.00;95980.75;1035992;28;20782;-46
2021/11/14 00:05:40;;;;;;;21.85;17.73;;;;;;;5.62;100.00;95978.31;1036099;28;20105;-50
2021/11/14 00:06:10;;;;;;;26.38;19.92;;;;;;;5.61;100.00;95981.84;1039694;28;20061;-48
2021/11/14 00:06:43;;;;;;;25.92;19.55;;;;;;;5.61;100.00;95979.22;1039992;28;20264;-50
2021/11/14 00:07:14;;;;;;;22.60;15.98;;;;;;;5.63;100.00;95984.34;1039989;28;20052;-48
2021/11/14 00:07:45;;;;;;;28.13;20.13;;;;;;;5.63;100.00;95984.34;1040111;28;20263;-50
2021/11/14 00:08:18;;;;;;;24.63;17.88;;;;;;;5.67;100.00;95983.28;1036456;28;20619;-50
2021/11/14 00:08:49;;;;;;;21.40;16.63;;;;;;;5.67;100.00;95985.03;1036125;28;20045;-51
2021/11/14 00:09:20;;;;;;;25.50;18.75;;;;;;;5.64;100.00;95988.63;1036018;28;20598;-48
2021/11/14 00:09:50;;;;;;;23.75;18.63;;;;;;;5.64;100.00;95981.66;1028011;28;20022;-48
2021/11/14 00:10:21;;;;;;;24.27;18.80;;;;;;;5.68;100.00;95984.13;1028292;28;20456;-48
2021/11/14 00:10:55;;;;;;;24.33;18.73;;;;;;;5.63;100.00;95990.41;1027834;28;20504;-47
2021/11/14 00:11:25;;;;;;;26.00;19.67;;;;;;;5.59;100.00;95983.69;1028314;28;20660;-48
2021/11/14 00:11:56;;;;;;;27.38;20.13;;;;;;;5.57;100.00;95988.06;1019813;28;20370;-48
2021/11/14 00:12:27;;;;;;;31.58;20.90;;;;;;;5.51;100.00;95993.59;1024413;28;20094;-51
2021/11/14 00:12:58;;;;;;;34.70;23.17;;;;;;;5.45;100.00;95988.72;1023716;28;20888;-49
2021/11/14 00:13:28;;;;;;;41.90;24.20;;;;;;;5.44;100.00;95984.41;1024241;28;20504;-49
2021/11/14 00:13:59;;;;;;;40.50;24.42;;;;;;;5.48;100.00;95987.69;1032003;28;20388;-48
2021/11/14 00:14:29;;;;;;;25.73;19.17;;;;;;;5.50;100.00;95991.06;1024137;28;20509;-49
2021/11/14 00:15:01;;;;;;;33.90;22.33;;;;;;;5.52;100.00;95992.69;1036131;28;20022;-48
2021/11/14 00:15:32;;;;;;;25.67;19.38;;;;;;;5.53;100.00;95985.72;1031798;28;20798;-50
2021/11/14 00:16:02;;;;;;;25.73;20.17;;;;;;;5.55;100.00;95989.09;1032202;28;20038;-47
2021/11/14 00:16:33;;;;;;;25.17;19.35;;;;;;;5.57;100.00;95982.06;1023897;28;20109;-49
2021/11/14 00:17:04;;;;;;;23.70;18.45;;;;;;;5.56;100.00;95977.78;1023968;28;20028;-51
2021/11/14 00:17:34;;;;;;;25.02;18.55;;;;;;;5.58;100.00;95979.38;1031994;28;20483;-47
2021/11/14 00:18:05;;;;;;;25.42;18.25;;;;;;;5.57;100.00;95982.88;1031550;28;20018;-50
2021/11/14 00:18:36;;;;;;;33.25;22.33;;;;;;;5.55;100.00;95992.50;1031761;28;20030;-51
2021/11/14 00:19:06;;;;;;;35.97;23.85;;;;;;;5.55;100.00;95987.31;1031547;28;20516;-49
2021/11/14 00:19:37;;;;;;;31.48;22.17;;;;;;;5.58;100.00;95989.78;1023935;28;20027;-48
2021/11/14 00:20:08;;;;;;;33.45;22.52;;;;;;;5.57;100.00;95988.06;1031927;28;20162;-48
2021/11/14 00:20:39;;;;;;;29.55;21.35;;;;;;;5.56;100.00;95983.81;1032462;28;20018;-48
2021/11/14 00:21:10;;;;;;;28.95;21.65;;;;;;;5.53;100.00;95983.97;1036090;28;20731;-51
2021/11/14 00:21:41;;;;;;;35.22;22.90;;;;;;;5.55;100.00;95989.91;1035800;28;20033;-49
2021/11/14 00:22:12;;;;;;;32.95;22.58;;;;;;;5.58;100.00;95981.97;1036061;28;20307;-49
2021/11/14 00:22:43;;;;;;;29.15;20.80;;;;;;;5.60;100.00;95980.13;1035918;28;20323;-48
2021/11/14 00:23:13;;;;;;;27.23;19.83;;;;;;;5.59;100.00;95990.59;1036059;28;20022;-48
2021/11/14 00:23:44;;;;;;;29.67;20.83;;;;;;;5.56;100.00;95989.00;1040259;28;20531;-49
2021/11/14 00:24:16;;;;;;;26.42;19.55;;;;;;;5.58;100.00;95984.56;1035923;28;20476;-48
2021/11/14 00:24:46;;;;;;;24.65;19.52;;;;;;;5.61;100.00;95984.44;1035965;28;20027;-48
2021/11/14 00:25:18;;;;;;;30.15;22.08;;;;;;;5.63;100.00;95985.19;1031824;28;20305;-48
2021/11/14 00:25:48;;;;;;;26.75;18.38;;;;;;;5.67;100.00;95980.69;1032183;28;20032;-49
2021/11/14 00:26:19;;;;;;;30.17;22.30;;;;;;;5.63;100.00;95986.94;1031929;28;20267;-48
2021/11/14 00:26:50;;;;;;;28.08;20.85;;;;;;;5.61;100.00;95983.56;1032269;28;20084;-50
2021/11/14 00:27:21;;;;;;;25.83;19.75;;;;;;;5.60;100.00;95982.75;1032054;28;20750;-48
2021/11/14 00:27:51;;;;;;;30.05;21.85;;;;;;;5.61;100.00;95983.56;1032038;28;20125;-49
2021/11/14 00:28:22;;;;;;;28.38;21.70;;;;;;;5.61;100.00;95981.84;1035995;28;20026;-50
2021/11/14 00:28:53;;;;;;;37.25;24.67;;;;;;;5.63;100.00;95984.34;1032117;28;20015;-47
2021/11/14 00:29:23;;;;;;;31.77;23.17;;;;;;;5.69;100.00;95981.44;1036009;28;20121;-48
2021/11/14 00:29:55;;;;;;;38.25;24.05;;;;;;;5.68;100.00;95984.13;1039849;28;20426;-48
2021/11/14 00:30:25;;;;;;;36.03;25.67;;;;;;;5.71;100.00;95981.38;1040019;28;20039;-48
2021/11/14 00:30:56;;;;;;;39.72;26.42;;;;;;;5.77;100.00;95983.66;1039984;28;20673;-48
2021/11/14 00:31:27;;;;;;;38.65;26.63;;;;;;;5.68;100.00;95984.94;1036126;28;20010;-47
2021/11/14 00:31:57;;;;;;;32.15;22.40;;;;;;;5.58;100.00;95981.97;1039853;28;20018;-47
2021/11/14 00:32:28;;;;;;;33.50;23.67;;;;;;;5.54;100.00;95985.66;1035971;28;20448;-48
2021/11/14 00:32:59;;;;;;;37.92;26.17;;;;;;;5.53;100.00;95985.72;1027647;28;20011;-48
2021/11/14 00:33:30;;;;;;;25.77;19.45;;;;;;;5.55;100.00;95986.47;1031766;28;20261;-48
2021/11/14 00:34:01;;;;;;;26.40;19.98;;;;;;;5.58;100.00;95984.56;1031666;28;20097;-50
2021/11/14 00:34:34;;;;;;;36.38;25.40;;;;;;;5.56;100.00;95991.63;1032313;28;20378;-47
2021/11/14 00:35:06;;;;;;;36.40;25.33;;;;;;;5.55;100.00;95994.28;1040096;28;20244;-49
2021/11/14 00:35:36;;;;;;;38.15;25.52;;;;;;;5.54;100.00;95987.41;1039966;28;20654;-52
2021/11/14 00:36:08;;;;;;;36.22;26.40;;;;;;;5.52;100.00;95987.50;1035773;28;20293;-51
2021/11/14 00:36:41;;;;;;;39.70;26.67;;;;;;;5.51;100.00;95991.00;1031801;28;20054;-49
2021/11/14 00:37:12;;;;;;;40.80;26.60;;;;;;;5.51;100.00;95987.56;1028575;28;20735;-48
2021/11/14 00:37:43;;;;;;;43.97;26.88;;;;;;;5.51;100.00;95985.78;1027835;28;20309;-49
2021/11/14 00:38:13;;;;;;;29.48;19.77;;;;;;;5.55;100.00;95987.31;1028219;28;20305;-48
2021/11/14 00:38:44;;;;;;;25.58;20.08;;;;;;;5.56;100.00;95988.19;1028301;28;20062;-48
2021/11/14 00:39:16;;;;;;;27.98;20.40;;;;;;;5.53;100.00;95986.56;1024166;28;20437;-50
2021/11/14 00:39:47;;;;;;;43.90;25.77;;;;;;;5.58;100.00;95984.56;1031976;28;20122;-47
2021/11/14 00:40:21;;;;;;;37.67;24.73;;;;;;;5.65;100.00;95980.75;1031696;28;20846;-48
2021/11/14 00:40:52;;;;;;;35.45;24.10;;;;;;;5.68;100.00;95984.94;1033343;28;20069;-49
2021/11/14 00:41:24;;;;;;;33.88;24.45;;;;;;;5.64;100.00;95978.22;1040087;28;20674;-50
2021/11/14 00:41:54;;;;;;;40.85;26.40;;;;;;;5.64;100.00;95984.25;1040067;28;20279;-48
2021/11/14 00:42:25;;;;;;;33.22;23.85;;;;;;;5.65;100.00;95983.34;1035690;28;20765;-50
2021/11/14 00:42:56;;;;;;;36.50;25.92;;;;;;;5.64;100.00;95984.25;1027413;28;20099;-48
2021/11/14 00:43:26;;;;;;;40.67;26.38;;;;;;;5.60;100.00;95979.31;1023907;29;20098;-48
2021/11/14 00:43:57;;;;;;;26.33;19.83;;;;;;;5.57;100.00;95987.25;1031679;28;20276;-49
2021/11/14 00:44:28;;;;;;;40.33;25.10;;;;;;;5.55;100.00;95989.09;1027990;28;20110;-50
2021/11/14 00:44:58;;;;;;;31.90;22.42;;;;;;;5.57;100.00;95988.06;1035983;28;20072;-48
2021/11/14 00:45:29;;;;;;;32.10;22.67;;;;;;;5.60;100.00;95984.50;1035788;28;20018;-51
2021/11/14 00:46:01;;;;;;;25.70;19.83;;;;;;;5.65;100.00;95985.13;1035943;28;20559;-48
2021/11/14 00:46:32;;;;;;;26.98;20.42;;;;;;;5.69;100.00;95985.78;1035807;28;20006;-49
2021/11/14 00:47:03;;;;;;;23.83;19.55;;;;;;;5.67;100.00;95988.47;1036362;28;20297;-48
2021/11/14 00:47:34;;;;;;;32.13;23.20;;;;;;;5.67;100.00;95985.03;1031751;28;20014;-48
2021/11/14 00:48:04;;;;;;;33.28;23.83;;;;;;;5.71;100.00;95983.97;1032244;28;20912;-48
2021/11/14 00:48:41;;;;;;;32.50;23.45;;;;;;;5.76;100.00;95979.34;1035874;28;20072;-50
2021/11/14 00:49:12;;;;;;;30.08;22.77;;;;;;;5.75;100.00;95975.09;1033825;28;20022;-48
2021/11/14 00:49:43;;;;;;;31.88;22.90;;;;;;;5.69;100.00;95978.84;1040007;28;20294;-49
2021/11/14 00:50:15;;;;;;;30.55;23.80;;;;;;;5.73;100.00;95979.53;1035929;28;20021;-49
2021/11/14 00:50:47;;;;;;;33.97;23.48;;;;;;;5.65;100.00;95982.53;1032481;28;20274;-49
2021/11/14 00:51:19;;;;;;;33.17;23.45;;;;;;;5.62;100.00;95985.25;1031753;28;20631;-50
2021/11/14 00:51:50;;;;;;;26.15;19.88;;;;;;;5.56;100.00;95986.41;1032658;28;20265;-48
2021/11/14 00:52:21;;;;;;;24.67;19.33;;;;;;;5.55;100.00;95986.47;1032228;28;20308;-48
2021/11/14 00:52:51;;;;;;;27.95;20.75;;;;;;;5.51;100.00;95987.56;1031692;28;20049;-49
2021/11/14 00:53:22;;;;;;;33.30;23.42;;;;;;;5.48;100.00;95987.69;1031783;28;20069;-48
2021/11/14 00:53:53;;;;;;;25.17;19.23;;;;;;;5.51;100.00;95982.38;1027744;28;20070;-49
2021/11/14 00:54:23;;;;;;;28.20;19.15;;;;;;;5.56;100.00;95988.19;1027998;28;20029;-50
2021/11/14 00:54:54;;;;;;;21.63;18.15;;;;;;;5.58;100.00;95983.75;1031718;28;20070;-48
2021/11/14 00:55:24;;;;;;;22.73;18.05;;;;;;;5.60;100.00;95989.69;1028151;28;20098;-48
2021/11/14 00:55:55;;;;;;;25.50;19.70;;;;;;;5.59;100.00;95985.41;1031744;28;20027;-48
2021/11/14 00:56:26;;;;;;;24.52;18.60;;;;;;;5.60;100.00;95987.94;1027851;28;20511;-50
2021/11/14 00:56:56;;;;;;;23.65;19.38;;;;;;;5.60;100.00;95980.13;1023809;28;20023;-47
2021/11/14 00:57:27;;;;;;;25.85;20.48;;;;;;;5.63;100.00;95984.34;1023666;29;20026;-49
2021/11/14 00:57:58;;;;;;;29.75;22.52;;;;;;;5.63;100.00;95981.72;1023678;29;20050;-50
2021/11/14 00:58:30;;;;;;;30.95;21.85;;;;;;;5.65;100.00;95983.34;1024293;28;20031;-47
2021/11/14 00:59:01;;;;;;;29.45;21.95;;;;;;;5.65;100.00;95979.94;1023981;28;20281;-48
2021/11/14 00:59:31;;;;;;;27.35;20.98;;;;;;;5.70;100.00;95977.06;1024122;28;20655;-50
2021/11/14 01:00:07;;;;;;;28.80;22.17;;;;;;;5.70;100.00;95974.47;1023689;29;20413;-48
2021/11/14 01:00:38;;;;;;;33.58;23.52;;;;;;;5.71;100.00;95978.78;1024561;28;20027;-51
2021/11/14 01:01:08;;;;;;;31.38;23.27;;;;;;;5.73;100.00;95980.38;1027608;28;20266;-48
2021/11/14 01:01:39;;;;;;;23.83;18.80;;;;;;;5.71;100.00;95973.56;1028623;28;20101;-49
2021/11/14 01:02:09;;;;;;;24.88;19.88;;;;;;;5.71;100.00;95978.78;1031908;28;20018;-49
2021/11/14 01:02:40;;;;;;;33.75;23.85;;;;;;;5.72;100.00;95972.63;1031523;28;20120;-50
2021/11/14 01:03:10;;;;;;;28.95;22.13;;;;;;;5.71;100.00;95977.00;1027422;28;20023;-48
2021/11/14 01:03:41;;;;;;;26.55;20.33;;;;;;;5.68;100.00;95979.75;1027760;28;20019;-47
2021/11/14 01:04:12;;;;;;;27.63;22.05;;;;;;;5.65;100.00;95983.34;1023760;29;20482;-49
2021/11/14 01:04:42;;;;;;;28.15;21.65;;;;;;;5.61;100.00;95980.97;1031751;28;20105;-48
2021/11/14 01:05:14;;;;;;;29.88;21.35;;;;;;;5.58;100.00;95974.19;1035858;28;20108;-50
2021/11/14 01:05:44;;;;;;;28.38;22.10;;;;;;;5.54;100.00;95977.84;1040098;28;20017;-48
2021/11/14 01:06:15;;;;;;;30.08;23.00;;;;;;;5.56;100.00;95981.22;1035626;28;20257;-48
2021/11/14 01:06:46;;;;;;;27.83;21.98;;;;;;;5.60;100.00;95980.13;1035997;28;20419;-50
2021/11/14 01:07:16;;;;;;;33.70;23.50;;;;;;;5.58;100.00;95975.94;1027634;28;20073;-50
2021/11/14 01:07:47;;;;;;;33.22;24.30;;;;;;;5.57;100.00;95975.09;1027568;28;20023;-48
2021/11/14 01:08:18;;;;;;;39.67;26.10;;;;;;;5.57;100.00;95972.47;1027663;28;20026;-50
2021/11/14 01:08:48;;;;;;;34.10;23.95;;;;;;;5.58;100.00;95975.94;1027987;28;20035;-49
2021/11/14 01:09:19;;;;;;;29.33;23.55;;;;;;;5.54;100.00;95979.63;1035787;28;20125;-50
2021/11/14 01:09:50;;;;;;;33.17;24.50;;;;;;;5.51;100.00;95975.41;1035783;28;20045;-50
2021/11/14 01:10:23;;;;;;;29.90;22.38;;;;;;;5.52;100.00;95979.69;1035765;28;20063;-49
2021/11/14 01:10:54;;;;;;;29.38;22.33;;;;;;;5.55;100.00;95982.13;1035876;28;20028;-48
2021/11/14 01:11:25;;;;;;;28.25;22.38;;;;;;;5.54;100.00;95979.63;1031521;28;20277;-47
2021/11/14 01:11:56;;;;;;;29.08;22.02;;;;;;;5.54;100.00;95983.06;1028275;28;20687;-49
2021/11/14 01:12:26;;;;;;;28.25;20.83;;;;;;;5.56;100.00;95973.41;1028133;28;20070;-49
2021/11/14 01:12:57;;;;;;;27.08;22.13;;;;;;;5.53;100.00;95978.75;1027606;28;20023;-48
2021/11/14 01:13:28;;;;;;;30.05;23.58;;;;;;;5.50;100.00;95981.53;1031698;28;20036;-48
2021/11/14 01:13:59;;;;;;;27.02;21.23;;;;;;;5.52;100.00;95984.88;1031784;28;20029;-49
2021/11/14 01:14:29;;;;;;;30.10;23.50;;;;;;;5.52;100.00;95982.28;1035891;28;20074;-48
2021/11/14 01:15:00;;;;;;;32.65;22.30;;;;;;;5.48;100.00;95979.91;1035929;28;20534;-48
2021/11/14 01:15:30;;;;;;;32.20;23.45;;;;;;;5.46;100.00;95982.56;1027652;28;20022;-49
2021/11/14 01:16:01;;;;;;;30.13;23.60;;;;;;;5.46;100.00;95977.38;1027567;28;20023;-48
2021/11/14 01:16:32;;;;;;;31.88;23.90;;;;;;;5.52;100.00;95979.69;1031788;28;20064;-47
2021/11/14 01:17:03;;;;;;;33.97;25.10;;;;;;;5.55;100.00;95981.28;1031927;28;20034;-49
2021/11/14 01:17:38;;;;;;;40.92;26.42;;;;;;;5.55;100.00;95979.53;1031757;28;20096;-48
2021/11/14 01:18:10;;;;;;;31.40;23.67;;;;;;;5.59;100.00;95981.06;1035826;28;20260;-49
2021/11/14 01:18:41;;;;;;;31.77;23.88;;;;;;;5.54;100.00;95983.06;1036762;28;20303;-49
2021/11/14 01:19:11;;;;;;;30.80;23.40;;;;;;;5.51;100.00;95978.00;1039892;28;20796;-48
2021/11/14 01:19:42;;;;;;;33.05;24.13;;;;;;;5.49;100.00;95981.59;1039611;28;20021;-49
2021/11/14 01:20:16;;;;;;;36.17;24.67;;;;;;;5.47;100.00;95983.44;1035759;28;20022;-49
2021/11/14 01:20:49;;;;;;;33.70;24.20;;;;;;;5.45;100.00;95980.91;1036392;28;20022;-49
2021/11/14 01:21:20;;;;;;;28.70;22.23;;;;;;;5.48;100.00;95980.78;1039782;28;20746;-49
2021/11/14 01:21:51;;;;;;;31.60;23.40;;;;;;;5.58;100.00;95987.19;1035782;28;20383;-51
2021/11/14 01:22:21;;;;;;;31.70;23.60;;;;;;;5.62;100.00;95980.06;1036015;28;20491;-48
2021/11/14 01:22:52;;;;;;;29.60;22.95;;;;;;;5.67;100.00;95985.03;1035375;28;20403;-48
2021/11/14 01:23:23;;;;;;;34.78;24.60;;;;;;;5.59;100.00;95981.06;1035723;28;20377;-50
2021/11/14 01:23:55;;;;;;;31.30;22.77;;;;;;;5.54;100.00;95984.81;1035677;28;20018;-48
2021/11/14 01:24:26;;;;;;;25.65;21.52;;;;;;;5.59;100.00;95981.06;1036015;28;20022;-48
2021/11/14 01:24:56;;;;;;;34.95;24.23;;;;;;;5.57;100.00;95984.66;1031973;28;20284;-49
2021/11/14 01:25:27;;;;;;;30.13;23.48;;;;;;;5.49;100.00;95985.03;1027761;28;20532;-49
2021/11/14 01:25:58;;;;;;;30.30;23.98;;;;;;;5.50;100.00;95983.25;1023627;28;20090;-49
2021/11/14 01:26:29;;;;;;;31.15;22.75;;;;;;;5.50;100.00;95984.13;1023695;28;20050;-51
2021/11/14 01:26:59;;;;;;;35.63;24.30;;;;;;;5.48;100.00;95991.16;1023927;28;20438;-48
2021/11/14 01:27:30;;;;;;;36.75;26.13;;;;;;;5.51;100.00;95984.97;1023929;28;20031;-48
2021/11/14 01:28:01;;;;;;;37.10;26.10;;;;;;;5.49;100.00;95989.41;1027837;28;20094;-50
2021/11/14 01:28:31;;;;;;;42.65;27.45;;;;;;;5.55;100.00;95983.88;1027657;28;20078;-47
2021/11/14 01:29:02;;;;;;;29.95;22.58;;;;;;;5.54;100.00;95984.81;1027529;28;20446;-49
2021/11/14 01:29:33;;;;;;;40.58;25.65;;;;;;;5.50;100.00;95983.25;1023502;29;20071;-50
2021/11/14 01:30:05;;;;;;;34.20;23.50;;;;;;;5.51;100.00;95985.78;1019687;29;20043;-49
2021/11/14 01:30:39;;;;;;;30.10;23.17;;;;;;;5.52;100.00;95989.22;1027824;28;20027;-49
2021/11/14 01:31:10;;;;;;;30.35;21.90;;;;;;;5.52;100.00;95986.63;1028392;28;20250;-49
2021/11/14 01:31:41;;;;;;;26.42;19.98;;;;;;;5.54;100.00;95988.25;1029462;28;20289;-49
2021/11/14 01:32:11;;;;;;;24.88;19.63;;;;;;;5.52;100.00;95982.28;1023597;29;20683;-49
2021/11/14 01:32:42;;;;;;;30.75;22.98;;;;;;;5.53;100.00;95985.72;1023589;28;20114;-48
2021/11/14 01:33:14;;;;;;;37.70;24.63;;;;;;;5.51;100.00;95985.78;1027627;28;20023;-51
2021/11/14 01:33:45;;;;;;;36.88;25.42;;;;;;;5.53;100.00;95988.31;1028624;28;20039;-50
2021/11/14 01:34:15;;;;;;;40.13;26.08;;;;;;;5.54;100.00;95985.66;1035789;28;20259;-49
2021/11/14 01:34:46;;;;;;;31.80;23.70;;;;;;;5.53;100.00;95983.97;1031474;28;20424;-48
2021/11/14 01:35:17;;;;;;;33.53;23.45;;;;;;;5.52;100.00;95990.09;1031882;28;20033;-48
2021/11/14 01:35:47;;;;;;;32.70;23.02;;;;;;;5.53;100.00;95983.97;1031710;28;20016;-48
2021/11/14 01:36:18;;;;;;;29.77;21.88;;;;;;;5.54;100.00;95985.66;1027737;28;20485;-49
2021/11/14 01:36:49;;;;;;;28.15;20.85;;;;;;;5.53;100.00;95983.97;1031708;28;20015;-51
2021/11/14 01:37:19;;;;;;;23.67;18.25;;;;;;;5.51;100.00;95992.75;1027655;28;20038;-47
2021/11/14 01:37:51;;;;;;;27.63;20.65;;;;;;;5.55;100.00;95979.53;1031633;28;20476;-48
2021/11/14 01:38:22;;;;;;;26.45;20.00;;;;;;;5.60;100.00;95980.13;1027650;28;20058;-48
2021/11/14 01:38:52;;;;;;;24.90;18.52;;;;;;;5.62;100.00;95980.06;1031803;28;20660;-47
2021/11/14 01:39:23;;;;;;;26.05;18.88;;;;;;;5.59;100.00;95988.88;1035338;28;20032;-49
2021/11/14 01:39:54;;;;;;;23.83;18.65;;;;;;;5.54;100.00;95985.66;1032062;28;20030;-48
2021/11/14 01:40:28;;;;;;;32.20;21.45;;;;;;;5.56;100.00;95983.81;1031679;28;20075;-48
2021/11/14 01:41:01;;;;;;;31.17;22.55;;;;;;;5.53;100.00;95983.97;1032841;28;20040;-48
2021/11/14 01:41:32;;;;;;;33.65;23.23;;;;;;;5.56;100.00;95986.41;1035690;28;20340;-48
2021/11/14 01:42:03;;;;;;;27.70;21.08;;;;;;;5.57;100.00;95989.84;1035601;28;20806;-49
2021/11/14 01:42:33;;;;;;;33.75;24.48;;;;;;;5.58;100.00;95988.94;1031718;28;20010;-50
2021/11/14 01:43:05;;;;;;;35.10;23.60;;;;;;;5.58;100.00;95983.75;1031346;28;20029;-50
2021/11/14 01:43:39;;;;;;;35.38;23.98;;;;;;;5.52;100.00;95987.50;1039711;28;20023;-49
2021/11/14 01:44:13;;;;;;;26.95;20.52;;;;;;;5.57;100.00;95982.06;1031508;28;20265;-49
2021/11/14 01:44:44;;;;;;;30.30;22.77;;;;;;;5.58;100.00;95988.94;1031724;28;20308;-48
2021/11/14 01:45:15;;;;;;;32.10;23.40;;;;;;;5.61;100.00;95981.84;1027577;28;20254;-49
2021/11/14 01:45:46;;;;;;;33.90;23.95;;;;;;;5.63;100.00;95986.94;1029587;28;20385;-49
2021/11/14 01:46:17;;;;;;;33.38;22.27;;;;;;;5.65;100.00;95985.97;1035726;28;20501;-49
2021/11/14 01:46:48;;;;;;;33.72;22.65;;;;;;;5.69;100.00;95977.97;1031865;28;20563;-49
2021/11/14 01:47:19;;;;;;;30.63;22.05;;;;;;;5.64;100.00;95986.84;1035560;28;20042;-49
2021/11/14 01:47:49;;;;;;;32.63;22.85;;;;;;;5.70;100.00;95990.06;1031892;28;20276;-48
2021/11/14 01:48:20;;;;;;;24.10;18.35;;;;;;;5.70;100.00;95990.06;1031576;28;20014;-49
2021/11/14 01:48:51;;;;;;;30.10;21.92;;;;;;;5.72;100.00;95977.84;1027596;28;20031;-49
2021/11/14 01:49:22;;;;;;;32.17;23.60;;;;;;;5.70;100.00;95982.28;1027427;28;20192;-48
2021/11/14 01:49:52;;;;;;;32.70;22.98;;;;;;;5.70;100.00;95980.50;1027720;28;20114;-48
2021/11/14 01:50:23;;;;;;;34.08;22.70;;;;;;;5.70;100.00;95982.28;1027706;28;20542;-48
2021/11/14 01:50:54;;;;;;;32.35;22.15;;;;;;;5.71;100.00;95983.97;1031823;28;20037;-49
2021/11/14 01:51:25;;;;;;;34.75;23.35;;;;;;;5.74;100.00;95986.41;1031252;28;20051;-48
2021/11/14 01:51:56;;;;;;;34.20;23.13;;;;;;;5.77;100.00;95988.84;1031512;28;20065;-50
2021/11/14 01:52:28;;;;;;;32.17;22.98;;;;;;;5.71;100.00;95983.97;1031635;28;20360;-49
2021/11/14 01:52:58;;;;;;;33.47;22.80;;;;;;;5.73;100.00;95982.13;1035329;28;20033;-49
2021/11/14 01:53:30;;;;;;;31.33;22.90;;;;;;;5.71;100.00;95990.00;1031361;28;20304;-48
2021/11/14 01:54:00;;;;;;;32.70;22.50;;;;;;;5.73;100.00;95987.34;1031762;28;20104;-49
2021/11/14 01:54:32;;;;;;;29.45;22.38;;;;;;;5.72;100.00;95990.84;1031835;28;20341;-49
2021/11/14 01:55:03;;;;;;;31.20;22.10;;;;;;;5.71;100.00;95997.81;1031968;28;20034;-48
2021/11/14 01:55:34;;;;;;;30.17;21.23;;;;;;;5.71;100.00;95992.59;1027371;28;20786;-50
2021/11/14 01:56:07;;;;;;;30.98;22.48;;;;;;;5.75;100.00;95988.09;1027617;28;20314;-48
2021/11/14 01:56:38;;;;;;;28.17;21.02;;;;;;;5.76;100.00;95984.56;1028849;28;20043;-49
2021/11/14 01:57:08;;;;;;;33.63;24.00;;;;;;;5.71;100.00;95991.78;1036529;28;20271;-49
2021/11/14 01:57:39;;;;;;;30.55;20.77;;;;;;;5.68;100.00;95991.91;1039575;28;20018;-49
2021/11/14 01:58:13;;;;;;;26.15;20.10;;;;;;;5.63;100.00;96000.78;1031552;28;20037;-48
2021/11/14 01:58:43;;;;;;;35.15;23.67;;;;;;;5.62;100.00;95993.91;1031512;28;20099;-47
2021/11/14 01:59:14;;;;;;;33.60;22.85;;;;;;;5.63;100.00;95998.19;1032181;28;20356;-48
2021/11/14 01:59:45;;;;;;;33.35;23.27;;;;;;;5.64;100.00;95994.66;1036808;28;20044;-48
2021/11/14 02:00:20;;;;;;;35.03;22.88;;;;;;;5.61;100.00;95992.22;1039718;28;20017;-48
2021/11/14 02:01:12;;;;;;;30.20;21.40;;;;;;;5.64;100.00;95986.84;1039629;28;20053;-50
2021/11/14 02:01:43;;;;;;;32.92;22.45;;;;;;;5.68;100.00;95995.34;1031420;28;20336;-49
2021/11/14 02:02:13;;;;;;;38.13;23.98;;;;;;;5.69;100.00;95990.97;1027551;28;20748;-49
2021/11/14 02:02:44;;;;;;;30.48;22.05;;;;;;;5.75;100.00;95990.69;1023379;28;20031;-50
2021/11/14 02:03:15;;;;;;;26.35;19.73;;;;;;;5.73;100.00;95992.53;1023931;28;20102;-49
2021/11/14 02:03:49;;;;;;;33.78;23.20;;;;;;;5.68;100.00;95990.16;1027788;28;20022;-49
2021/11/14 02:04:19;;;;;;;36.15;23.63;;;;;;;5.68;100.00;96000.53;1035706;28;20119;-47
2021/11/14 02:04:50;;;;;;;31.60;22.85;;;;;;;5.68;100.00;95989.31;1035560;28;20277;-48
2021/11/14 02:05:23;;;;;;;30.95;23.05;;;;;;;5.70;100.00;95992.69;1035536;28;20048;-49
2021/11/14 02:05:53;;;;;;;34.28;24.48;;;;;;;5.63;100.00;95986.94;1031946;28;20089;-49
2021/11/14 02:06:25;;;;;;;33.15;22.55;;;;;;;5.67;100.00;95988.47;1031516;28;20695;-48
2021/11/14 02:06:55;;;;;;;30.83;22.52;;;;;;;5.60;100.00;95994.91;1028446;28;20030;-49
2021/11/14 02:07:26;;;;;;;29.15;21.60;;;;;;;5.61;100.00;95997.44;1027654;28;20996;-49
2021/11/14 02:07:57;;;;;;;34.05;23.65;;;;;;;5.60;100.00;95985.34;1031325;28;20023;-51
2021/11/14 02:08:28;;;;;;;33.33;23.40;;;;;;;5.61;100.00;95988.78;1031837;28;20026;-50
2021/11/14 02:08:59;;;;;;;32.25;23.17;;;;;;;5.61;100.00;95997.44;1027647;28;20343;-50
2021/11/14 02:09:31;;;;;;;35.85;24.30;;;;;;;5.60;100.00;95995.72;1027669;28;20511;-49
2021/11/14 02:10:04;;;;;;;30.98;21.38;;;;;;;5.64;100.00;95992.06;1027381;28;20460;-48
2021/11/14 02:10:35;;;;;;;28.90;21.48;;;;;;;5.67;100.00;95983.28;1028281;28;20238;-51
2021/11/14 02:11:06;;;;;;;32.90;23.38;;;;;;;5.65;100.00;95985.13;1024131;28;20263;-49
2021/11/14 02:11:36;;;;;;;37.10;24.80;;;;;;;5.70;100.00;95990.06;1028484;28;20266;-49
2021/11/14 02:12:07;;;;;;;34.15;23.60;;;;;;;5.71;100.00;95983.97;1031479;28;20046;-49
2021/11/14 02:12:38;;;;;;;34.97;23.02;;;;;;;5.69;100.00;95988.38;1027649;28;20030;-49
2021/11/14 02:13:09;;;;;;;29.48;21.95;;;;;;;5.71;100.00;95990.00;1027433;28;20065;-49
2021/11/14 02:13:39;;;;;;;33.38;23.02;;;;;;;5.64;100.00;95994.66;1027854;28;20023;-49
2021/11/14 02:14:10;;;;;;;37.58;24.42;;;;;;;5.63;100.00;95987.78;1023550;28;20610;-47
2021/11/14 02:14:41;;;;;;;34.28;21.92;;;;;;;5.64;100.00;95994.66;1023723;28;20015;-48
2021/11/14 02:15:12;;;;;;;34.47;23.98;;;;;;;5.59;100.00;95991.47;1023737;28;20027;-47
2021/11/14 02:15:42;;;;;;;42.45;26.25;;;;;;;5.60;100.00;95995.72;1028028;28;20266;-48
2021/11/14 02:16:13;;;;;;;40.38;26.02;;;;;;;5.59;100.00;95994.06;1031458;28;20018;-52
2021/11/14 02:16:44;;;;;;;34.78;24.88;;;;;;;5.60;100.00;95989.69;1027680;28;20027;-47
2021/11/14 02:17:14;;;;;;;33.35;23.50;;;;;;;5.59;100.00;95994.06;1027505;28;20274;-49
2021/11/14 02:17:45;;;;;;;32.60;23.10;;;;;;;5.63;100.00;95987.78;1024010;28;20118;-49
2021/11/14 02:18:16;;;;;;;35.03;23.85;;;;;;;5.69;100.00;95980.59;1027435;28;20023;-48
2021/11/14 02:18:46;;;;;;;27.40;20.23;;;;;;;5.69;100.00;95988.38;1027662;28;20548;-47
2021/11/14 02:19:17;;;;;;;32.78;22.77;;;;;;;5.62;100.00;95990.47;1023549;28;20023;-51
2021/11/14 02:19:49;;;;;;;34.67;23.80;;;;;;;5.67;100.00;95991.09;1023682;28;20035;-49
2021/11/14 02:20:20;;;;;;;24.48;18.77;;;;;;;5.71;100.00;95981.38;1027237;28;20033;-48
2021/11/14 02:20:51;;;;;;;34.47;23.10;;;;;;;5.71;100.00;95983.97;1027905;28;20258;-51
2021/11/14 02:21:22;;;;;;;29.20;19.90;;;;;;;5.65;100.00;95985.13;1032004;28;20450;-48
2021/11/14 02:21:53;;;;;;;29.00;19.88;;;;;;;5.62;100.00;95983.50;1027755;28;20409;-49
2021/11/14 02:22:23;;;;;;;31.17;22.15;;;;;;;5.60;100.00;95987.94;1031502;28;20053;-49
2021/11/14 02:22:54;;;;;;;32.05;21.55;;;;;;;5.57;100.00;95990.69;1031266;28;20109;-48
2021/11/14 02:23:25;;;;;;;27.80;19.35;;;;;;;5.60;100.00;95989.69;1031712;28;20534;-49